sensor_id;sensor_type;location;lat;lon;timestamp;pressure;altitude;pressure_sealevel;temperature;humidity
11268;BME280;49397;47.474;9.416;2022-07-03T00:02:41;57074.81;;;-144.51;77.74
11268;BME280;49397;47.474;9.416;2022-07-03T00:05:25;57105.31;;;-144.51;77.00
11268;BME280;49397;47.474;9.416;2022-07-03T00:08:10;57068.72;;;-144.51;76.40
11268;BME280;49397;47.474;9.416;2022-07-03T00:10:53;57070.75;;;-144.51;75.63
11268;BME280;49397;47.474;9.416;2022-07-03T00:13:37;57078.91;;;-144.51;75.24
11268;BME280;49397;47.474;9.416;2022-07-03T00:16:21;57056.53;;;-144.51;74.81
11268;BME280;49397;47.474;9.416;2022-07-03T00:19:05;57044.34;;;-144.51;73.91
11268;BME280;49397;47.474;9.416;2022-07-03T00:22:02;57052.47;;;-144.51;72.99
11268;BME280;49397;47.474;9.416;2022-07-03T00:24:52;57052.47;;;-144.51;72.48
11268;BME280;49397;47.474;9.416;2022-07-03T00:27:38;57064.66;;;-144.51;73.48
11268;BME280;49397;47.474;9.416;2022-07-03T00:30:22;57076.88;;;-144.51;74.43
11268;BME280;49397;47.474;9.416;2022-07-03T00:33:07;57089.06;;;-144.51;74.02
11268;BME280;49397;47.474;9.416;2022-07-03T00:35:54;57091.09;;;-144.51;73.73
11268;BME280;49397;47.474;9.416;2022-07-03T00:38:39;57091.09;;;-144.51;75.36
11268;BME280;49397;47.474;9.416;2022-07-03T00:41:28;57082.97;;;-144.51;74.51
11268;BME280;49397;47.474;9.416;2022-07-03T00:44:12;57074.81;;;-144.51;75.49
11268;BME280;49397;47.474;9.416;2022-07-03T00:46:58;57111.41;;;-144.51;76.38
11268;BME280;49397;47.474;9.416;2022-07-03T00:49:46;57111.41;;;-144.51;76.90
11268;BME280;49397;47.474;9.416;2022-07-03T00:52:30;57117.50;;;-144.51;77.27
11268;BME280;49397;47.474;9.416;2022-07-03T00:55:16;57091.09;;;-144.51;76.32
11268;BME280;49397;47.474;9.416;2022-07-03T00:58:01;57093.13;;;-144.51;76.29
11268;BME280;49397;47.474;9.416;2022-07-03T01:00:48;57123.59;;;-144.51;76.10
11268;BME280;49397;47.474;9.416;2022-07-03T01:03:39;57107.34;;;-144.51;77.16
11268;BME280;49397;47.474;9.416;2022-07-03T01:06:26;57082.97;;;-144.51;76.58
11268;BME280;49397;47.474;9.416;2022-07-03T01:09:12;57078.91;;;-144.51;76.77
11268;BME280;49397;47.474;9.416;2022-07-03T01:12:26;57115.47;;;-144.51;76.40
11268;BME280;49397;47.474;9.416;2022-07-03T01:15:14;57095.16;;;-144.51;76.56
11268;BME280;49397;47.474;9.416;2022-07-03T01:18:17;57078.91;;;-144.51;75.65
11268;BME280;49397;47.474;9.416;2022-07-03T01:21:29;57109.38;;;-144.51;74.05
11268;BME280;49397;47.474;9.416;2022-07-03T01:27:33;57064.66;;;-144.51;72.10
11268;BME280;49397;47.474;9.416;2022-07-03T01:30:18;57109.38;;;-144.51;70.71
11268;BME280;49397;47.474;9.416;2022-07-03T01:33:07;57091.09;;;-144.51;71.28
11268;BME280;49397;47.474;9.416;2022-07-03T01:38:45;57076.88;;;-144.51;74.74
11268;BME280;49397;47.474;9.416;2022-07-03T01:41:30;57060.59;;;-144.51;75.76
11268;BME280;49397;47.474;9.416;2022-07-03T01:44:14;57095.16;;;-144.51;76.36
11268;BME280;49397;47.474;9.416;2022-07-03T01:46:59;57091.09;;;-144.51;75.97
11268;BME280;49397;47.474;9.416;2022-07-03T01:49:43;57078.91;;;-144.51;74.28
11268;BME280;49397;47.474;9.416;2022-07-03T01:52:31;57064.66;;;-144.51;73.50
11268;BME280;49397;47.474;9.416;2022-07-03T01:55:16;57093.13;;;-144.51;74.51
11268;BME280;49397;47.474;9.416;2022-07-03T01:58:02;57105.31;;;-144.51;75.50
11268;BME280;49397;47.474;9.416;2022-07-03T02:03:35;57105.31;;;-144.51;74.00
11268;BME280;49397;47.474;9.416;2022-07-03T02:06:28;57074.81;;;-144.51;74.44
11268;BME280;49397;47.474;9.416;2022-07-03T02:09:17;57078.91;;;-144.51;75.45
11268;BME280;49397;47.474;9.416;2022-07-03T02:12:03;57087.03;;;-144.51;73.97
11268;BME280;49397;47.474;9.416;2022-07-03T02:15:02;57091.09;;;-144.51;72.67
11268;BME280;49397;47.474;9.416;2022-07-03T02:17:48;57089.06;;;-144.51;70.68
11268;BME280;49397;47.474;9.416;2022-07-03T02:20:35;57103.28;;;-144.51;69.57
11268;BME280;49397;47.474;9.416;2022-07-03T02:23:22;57107.34;;;-144.51;67.80
11268;BME280;49397;47.474;9.416;2022-07-03T02:26:13;57048.41;;;-144.51;68.77
11268;BME280;49397;47.474;9.416;2022-07-03T02:29:13;57091.09;;;-144.51;68.80
11268;BME280;49397;47.474;9.416;2022-07-03T02:32:02;57030.13;;;-144.51;68.58
11268;BME280;49397;47.474;9.416;2022-07-03T02:34:56;57115.47;;;-144.51;70.27
11268;BME280;49397;47.474;9.416;2022-07-03T02:37:53;57087.03;;;-144.51;69.54
11268;BME280;49397;47.474;9.416;2022-07-03T02:40:57;57111.41;;;-144.51;71.46
11268;BME280;49397;47.474;9.416;2022-07-03T02:46:37;57099.22;;;-144.51;72.34
11268;BME280;49397;47.474;9.416;2022-07-03T02:49:50;57074.81;;;-144.51;73.75
11268;BME280;49397;47.474;9.416;2022-07-03T02:55:58;57119.53;;;-144.51;74.57
11268;BME280;49397;47.474;9.416;2022-07-03T02:59:22;57089.06;;;-144.51;74.51
11268;BME280;49397;47.474;9.416;2022-07-03T03:02:19;57105.31;;;-144.51;75.58
11268;BME280;49397;47.474;9.416;2022-07-03T03:05:21;57123.59;;;-144.51;76.04
11268;BME280;49397;47.474;9.416;2022-07-03T03:08:17;57135.78;;;-144.51;76.32
11268;BME280;49397;47.474;9.416;2022-07-03T03:14:09;57115.47;;;-144.51;77.77
11268;BME280;49397;47.474;9.416;2022-07-03T03:16:54;57123.59;;;-144.51;78.71
11268;BME280;49397;47.474;9.416;2022-07-03T03:19:45;57133.75;;;-144.51;78.18
11268;BME280;49397;47.474;9.416;2022-07-03T03:22:46;57107.34;;;-144.51;80.16
11268;BME280;49397;47.474;9.416;2022-07-03T03:25:36;57121.56;;;-144.51;81.48
11268;BME280;49397;47.474;9.416;2022-07-03T03:28:21;57152.03;;;-144.51;82.15
11268;BME280;49397;47.474;9.416;2022-07-03T03:31:05;57111.41;;;-144.51;82.38
11268;BME280;49397;47.474;9.416;2022-07-03T03:33:52;57166.28;;;-144.51;81.46
11268;BME280;49397;47.474;9.416;2022-07-03T03:36:36;57123.59;;;-144.51;81.67
11268;BME280;49397;47.474;9.416;2022-07-03T03:39:21;57105.31;;;-144.51;82.61
11268;BME280;49397;47.474;9.416;2022-07-03T03:42:05;57085.00;;;-144.51;80.92
11268;BME280;49397;47.474;9.416;2022-07-03T03:44:49;57103.28;;;-144.51;80.37
11268;BME280;49397;47.474;9.416;2022-07-03T03:47:33;57078.91;;;-144.51;79.22
11268;BME280;49397;47.474;9.416;2022-07-03T03:50:17;57115.47;;;-144.51;78.96
11268;BME280;49397;47.474;9.416;2022-07-03T03:53:01;57107.34;;;-144.51;79.61
11268;BME280;49397;47.474;9.416;2022-07-03T03:58:43;57119.53;;;-144.51;77.89
11268;BME280;49397;47.474;9.416;2022-07-03T04:01:28;57111.41;;;-144.51;78.20
11268;BME280;49397;47.474;9.416;2022-07-03T04:04:12;57129.69;;;-144.51;79.34
11268;BME280;49397;47.474;9.416;2022-07-03T04:07:00;57105.31;;;-144.51;79.94
11268;BME280;49397;47.474;9.416;2022-07-03T04:09:44;57119.53;;;-144.51;80.37
11268;BME280;49397;47.474;9.416;2022-07-03T04:12:29;57141.88;;;-144.51;80.41
11268;BME280;49397;47.474;9.416;2022-07-03T04:15:13;57119.53;;;-144.51;80.02
11268;BME280;49397;47.474;9.416;2022-07-03T04:17:57;57123.59;;;-144.51;79.25
11268;BME280;49397;47.474;9.416;2022-07-03T04:20:41;57107.34;;;-144.51;78.26
11268;BME280;49397;47.474;9.416;2022-07-03T04:23:25;57147.97;;;-144.51;77.64
11268;BME280;49397;47.474;9.416;2022-07-03T04:26:09;57115.47;;;-144.51;77.75
11268;BME280;49397;47.474;9.416;2022-07-03T04:28:53;57105.31;;;-144.51;76.74
11268;BME280;49397;47.474;9.416;2022-07-03T04:31:37;57119.53;;;-144.51;76.39
11268;BME280;49397;47.474;9.416;2022-07-03T04:34:21;57105.31;;;-144.51;76.70
11268;BME280;49397;47.474;9.416;2022-07-03T04:37:05;57125.63;;;-144.51;77.17
11268;BME280;49397;47.474;9.416;2022-07-03T04:39:49;57099.22;;;-144.51;76.87
11268;BME280;49397;47.474;9.416;2022-07-03T04:42:33;57099.22;;;-144.51;76.36
11268;BME280;49397;47.474;9.416;2022-07-03T04:45:17;57082.97;;;-144.51;76.71
11268;BME280;49397;47.474;9.416;2022-07-03T04:48:01;57113.44;;;-144.51;76.71
11268;BME280;49397;47.474;9.416;2022-07-03T04:50:45;57082.97;;;-144.51;76.45
11268;BME280;49397;47.474;9.416;2022-07-03T04:53:29;57091.09;;;-144.51;76.75
11268;BME280;49397;47.474;9.416;2022-07-03T04:56:13;57058.56;;;-144.51;74.63
11268;BME280;49397;47.474;9.416;2022-07-03T04:58:57;57085.00;;;-144.51;74.96
11268;BME280;49397;47.474;9.416;2022-07-03T05:01:41;57066.69;;;-144.51;74.88
11268;BME280;49397;47.474;9.416;2022-07-03T05:04:25;57038.25;;;-144.51;71.08
11268;BME280;49397;47.474;9.416;2022-07-03T05:07:09;57024.03;;;-144.51;74.74
11268;BME280;49397;47.474;9.416;2022-07-03T05:09:53;57036.22;;;-144.51;72.94
11268;BME280;49397;47.474;9.416;2022-07-03T05:12:37;57042.31;;;-144.51;73.89
11268;BME280;49397;47.474;9.416;2022-07-03T05:15:21;57038.25;;;-144.51;74.80
11268;BME280;49397;47.474;9.416;2022-07-03T05:18:05;57034.19;;;-144.51;76.38
11268;BME280;49397;47.474;9.416;2022-07-03T05:20:49;57015.91;;;-144.51;77.91
11268;BME280;49397;47.474;9.416;2022-07-03T05:23:33;57013.88;;;-144.51;79.47
11268;BME280;49397;47.474;9.416;2022-07-03T05:26:17;56977.28;;;-144.51;78.62
11268;BME280;49397;47.474;9.416;2022-07-03T05:29:01;57007.78;;;-144.51;78.02
11268;BME280;49397;47.474;9.416;2022-07-03T05:31:45;57009.81;;;-144.51;77.97
11268;BME280;49397;47.474;9.416;2022-07-03T05:34:29;56981.34;;;-144.51;78.61
11268;BME280;49397;47.474;9.416;2022-07-03T05:37:13;57022.00;;;-144.51;78.48
11268;BME280;49397;47.474;9.416;2022-07-03T05:39:57;56979.31;;;-144.51;78.94
11268;BME280;49397;47.474;9.416;2022-07-03T05:42:41;56971.19;;;-144.51;78.51
11268;BME280;49397;47.474;9.416;2022-07-03T05:45:25;56967.13;;;-144.51;78.12
11268;BME280;49397;47.474;9.416;2022-07-03T05:48:09;56971.19;;;-144.51;77.54
11268;BME280;49397;47.474;9.416;2022-07-03T05:50:53;56961.03;;;-144.51;76.90
11268;BME280;49397;47.474;9.416;2022-07-03T05:53:37;56965.09;;;-144.51;75.68
11268;BME280;49397;47.474;9.416;2022-07-03T05:56:21;56940.72;;;-144.51;74.67
11268;BME280;49397;47.474;9.416;2022-07-03T05:59:05;56932.59;;;-144.51;74.40
11268;BME280;49397;47.474;9.416;2022-07-03T06:01:49;56900.09;;;-144.51;73.89
11268;BME280;49397;47.474;9.416;2022-07-03T06:04:33;56936.66;;;-144.51;75.03
11268;BME280;49397;47.474;9.416;2022-07-03T06:07:17;56922.44;;;-144.51;74.66
11268;BME280;49397;47.474;9.416;2022-07-03T06:10:02;56956.97;;;-144.51;73.57
11268;BME280;49397;47.474;9.416;2022-07-03T06:12:46;56952.91;;;-144.51;75.38
11268;BME280;49397;47.474;9.416;2022-07-03T06:15:30;56924.47;;;-144.51;74.62
11268;BME280;49397;47.474;9.416;2022-07-03T06:18:14;56902.13;;;-144.51;75.88
11268;BME280;49397;47.474;9.416;2022-07-03T06:20:58;56977.28;;;-144.51;77.03
11268;BME280;49397;47.474;9.416;2022-07-03T06:23:42;56985.41;;;-144.51;78.18
11268;BME280;49397;47.474;9.416;2022-07-03T06:26:26;56985.41;;;-144.51;80.30
11268;BME280;49397;47.474;9.416;2022-07-03T06:29:11;56934.63;;;-144.51;80.85
11268;BME280;49397;47.474;9.416;2022-07-03T06:31:55;56916.34;;;-144.51;77.07
11268;BME280;49397;47.474;9.416;2022-07-03T06:34:39;56900.09;;;-144.51;74.99
11268;BME280;49397;47.474;9.416;2022-07-03T06:37:23;56891.94;;;-144.51;73.00
11268;BME280;49397;47.474;9.416;2022-07-03T06:40:07;56912.28;;;-144.51;71.58
11268;BME280;49397;47.474;9.416;2022-07-03T06:42:52;56881.78;;;-144.51;70.15
11268;BME280;49397;47.474;9.416;2022-07-03T06:45:36;56871.63;;;-144.51;70.41
11268;BME280;49397;47.474;9.416;2022-07-03T06:48:20;56863.50;;;-144.51;69.29
11268;BME280;49397;47.474;9.416;2022-07-03T06:51:04;56851.31;;;-144.51;68.17
11268;BME280;49397;47.474;9.416;2022-07-03T06:53:48;56853.34;;;-144.51;68.46
11268;BME280;49397;47.474;9.416;2022-07-03T06:56:32;56859.44;;;-144.51;68.45
11268;BME280;49397;47.474;9.416;2022-07-03T06:59:16;56867.56;;;-144.51;68.19
11268;BME280;49397;47.474;9.416;2022-07-03T07:02:00;56855.38;;;-144.51;67.17
11268;BME280;49397;47.474;9.416;2022-07-03T07:04:45;56833.03;;;-144.51;70.15
11268;BME280;49397;47.474;9.416;2022-07-03T07:07:29;56875.69;;;-144.51;68.41
11268;BME280;49397;47.474;9.416;2022-07-03T07:10:12;56839.13;;;-144.51;68.17
11268;BME280;49397;47.474;9.416;2022-07-03T07:12:56;56816.78;;;-144.51;68.22
11268;BME280;49397;47.474;9.416;2022-07-03T07:15:40;56826.94;;;-144.51;69.03
11268;BME280;49397;47.474;9.416;2022-07-03T07:18:24;56839.13;;;-144.51;71.26
11268;BME280;49397;47.474;9.416;2022-07-03T07:21:09;56822.88;;;-144.51;69.07
11268;BME280;49397;47.474;9.416;2022-07-03T07:23:53;56831.00;;;-144.51;68.96
11268;BME280;49397;47.474;9.416;2022-07-03T07:26:37;56810.69;;;-144.51;68.69
11268;BME280;49397;47.474;9.416;2022-07-03T07:29:21;56776.13;;;-144.51;69.04
11268;BME280;49397;47.474;9.416;2022-07-03T07:32:06;56778.16;;;-144.51;69.26
11268;BME280;49397;47.474;9.416;2022-07-03T07:34:50;56818.81;;;-144.51;69.67
11268;BME280;49397;47.474;9.416;2022-07-03T07:37:34;56798.50;;;-144.51;68.86
11268;BME280;49397;47.474;9.416;2022-07-03T07:40:18;56782.22;;;-144.51;68.43
11268;BME280;49397;47.474;9.416;2022-07-03T07:43:02;56802.56;;;-144.51;66.63
11268;BME280;49397;47.474;9.416;2022-07-03T07:45:46;56794.44;;;-144.51;64.49
11268;BME280;49397;47.474;9.416;2022-07-03T07:48:30;56774.09;;;-144.51;65.10
11268;BME280;49397;47.474;9.416;2022-07-03T07:51:14;56802.56;;;-144.51;65.53
11268;BME280;49397;47.474;9.416;2022-07-03T07:53:58;56761.91;;;-144.51;65.16
11268;BME280;49397;47.474;9.416;2022-07-03T07:56:43;56765.97;;;-144.51;65.01
11268;BME280;49397;47.474;9.416;2022-07-03T07:59:27;56790.34;;;-144.51;64.63
11268;BME280;49397;47.474;9.416;2022-07-03T08:02:11;56765.97;;;-144.51;65.13
11268;BME280;49397;47.474;9.416;2022-07-03T08:05:14;56796.47;;;-144.51;65.73
11268;BME280;49397;47.474;9.416;2022-07-03T08:08:17;56768.00;;;-144.51;64.30
11268;BME280;49397;47.474;9.416;2022-07-03T08:11:01;56776.13;;;-144.51;61.45
11268;BME280;49397;47.474;9.416;2022-07-03T08:13:45;56759.88;;;-144.51;61.88
11268;BME280;49397;47.474;9.416;2022-07-03T08:16:29;56755.81;;;-144.51;62.16
11268;BME280;49397;47.474;9.416;2022-07-03T08:19:14;56753.78;;;-144.51;63.13
11268;BME280;49397;47.474;9.416;2022-07-03T08:21:57;56729.41;;;-144.51;63.65
11268;BME280;49397;47.474;9.416;2022-07-03T08:24:42;56739.56;;;-144.51;62.69
11268;BME280;49397;47.474;9.416;2022-07-03T08:27:26;56729.41;;;-144.51;61.38
11268;BME280;49397;47.474;9.416;2022-07-03T08:30:10;56741.59;;;-144.51;59.86
11268;BME280;49397;47.474;9.416;2022-07-03T08:32:57;56747.69;;;-144.51;59.71
11268;BME280;49397;47.474;9.416;2022-07-03T08:35:41;56711.13;;;-144.51;60.43
11268;BME280;49397;47.474;9.416;2022-07-03T08:38:31;56721.28;;;-144.51;60.99
11268;BME280;49397;47.474;9.416;2022-07-03T08:41:18;56721.28;;;-144.51;59.82
11268;BME280;49397;47.474;9.416;2022-07-03T08:44:05;56709.09;;;-144.51;59.23
11268;BME280;49397;47.474;9.416;2022-07-03T08:46:51;56705.03;;;-144.51;60.49
11268;BME280;49397;47.474;9.416;2022-07-03T08:49:35;56690.81;;;-144.51;60.17
11268;BME280;49397;47.474;9.416;2022-07-03T08:52:21;56676.56;;;-144.51;59.42
11268;BME280;49397;47.474;9.416;2022-07-03T08:55:07;56688.78;;;-144.51;58.32
11268;BME280;49397;47.474;9.416;2022-07-03T08:57:54;56713.16;;;-144.51;58.82
11268;BME280;49397;47.474;9.416;2022-07-03T09:00:39;56700.97;;;-144.51;57.21
11268;BME280;49397;47.474;9.416;2022-07-03T09:03:24;56678.59;;;-144.51;58.46
11268;BME280;49397;47.474;9.416;2022-07-03T09:06:09;56700.97;;;-144.51;56.83
11268;BME280;49397;47.474;9.416;2022-07-03T09:08:53;56656.25;;;-144.51;57.30
11268;BME280;49397;47.474;9.416;2022-07-03T09:11:39;56642.03;;;-144.51;56.48
11268;BME280;49397;47.474;9.416;2022-07-03T09:14:23;56656.25;;;-144.51;56.44
11268;BME280;49397;47.474;9.416;2022-07-03T09:17:07;56629.84;;;-144.51;56.72
11268;BME280;49397;47.474;9.416;2022-07-03T09:19:52;56615.63;;;-144.51;56.05
11268;BME280;49397;47.474;9.416;2022-07-03T09:22:36;56648.13;;;-144.51;54.75
11268;BME280;49397;47.474;9.416;2022-07-03T09:25:20;56627.81;;;-144.51;55.33
11268;BME280;49397;47.474;9.416;2022-07-03T09:28:04;56650.16;;;-144.51;55.51
11268;BME280;49397;47.474;9.416;2022-07-03T09:31:01;56672.50;;;-144.51;55.53
11268;BME280;49397;47.474;9.416;2022-07-03T09:33:58;56668.44;;;-144.51;53.48
11268;BME280;49397;47.474;9.416;2022-07-03T09:36:48;56668.44;;;-144.51;54.16
11268;BME280;49397;47.474;9.416;2022-07-03T09:39:32;56650.16;;;-144.51;54.55
11268;BME280;49397;47.474;9.416;2022-07-03T09:42:21;56664.38;;;-144.51;55.02
11268;BME280;49397;47.474;9.416;2022-07-03T09:45:05;56623.75;;;-144.51;53.71
11268;BME280;49397;47.474;9.416;2022-07-03T09:47:49;56611.56;;;-144.51;52.62
11268;BME280;49397;47.474;9.416;2022-07-03T09:50:33;56611.56;;;-144.51;51.78
11268;BME280;49397;47.474;9.416;2022-07-03T09:53:17;56575.00;;;-144.51;51.70
11268;BME280;49397;47.474;9.416;2022-07-03T09:56:01;56609.53;;;-144.51;51.43
11268;BME280;49397;47.474;9.416;2022-07-03T10:01:45;56589.22;;;-144.51;48.66
11268;BME280;49397;47.474;9.416;2022-07-03T10:04:30;56595.31;;;-144.51;49.68
11268;BME280;49397;47.474;9.416;2022-07-03T10:07:14;56593.28;;;-144.51;48.25
11268;BME280;49397;47.474;9.416;2022-07-03T10:09:58;56595.31;;;-144.51;47.79
11268;BME280;49397;47.474;9.416;2022-07-03T10:12:41;56558.72;;;-144.51;49.18
11268;BME280;49397;47.474;9.416;2022-07-03T10:15:29;56595.31;;;-144.51;47.91
11268;BME280;49397;47.474;9.416;2022-07-03T10:18:13;56648.13;;;-144.51;48.14
11268;BME280;49397;47.474;9.416;2022-07-03T10:20:57;56646.09;;;-144.51;45.78
11268;BME280;49397;47.474;9.416;2022-07-03T10:23:44;56652.19;;;-144.51;47.12
11268;BME280;49397;47.474;9.416;2022-07-03T10:26:28;56607.50;;;-144.51;44.94
11268;BME280;49397;47.474;9.416;2022-07-03T10:29:14;56593.28;;;-144.51;45.00
11268;BME280;49397;47.474;9.416;2022-07-03T10:31:59;56607.50;;;-144.51;46.63
11268;BME280;49397;47.474;9.416;2022-07-03T10:34:44;56637.97;;;-144.51;44.29
11268;BME280;49397;47.474;9.416;2022-07-03T10:37:41;56611.56;;;-144.51;44.55
11268;BME280;49397;47.474;9.416;2022-07-03T10:40:30;56611.56;;;-144.51;43.11
11268;BME280;49397;47.474;9.416;2022-07-03T10:43:40;56554.66;;;-144.51;43.17
11268;BME280;49397;47.474;9.416;2022-07-03T10:46:43;56615.63;;;-144.51;42.24
11268;BME280;49397;47.474;9.416;2022-07-03T10:49:27;56595.31;;;-144.51;44.31
11268;BME280;49397;47.474;9.416;2022-07-03T10:52:16;56572.97;;;-144.51;43.15
11268;BME280;49397;47.474;9.416;2022-07-03T10:55:00;56603.44;;;-144.51;41.22
11268;BME280;49397;47.474;9.416;2022-07-03T10:58:10;56566.88;;;-144.51;42.77
11268;BME280;49397;47.474;9.416;2022-07-03T11:00:54;56568.91;;;-144.51;41.54
11268;BME280;49397;47.474;9.416;2022-07-03T11:03:54;56587.19;;;-144.51;43.75
11268;BME280;49397;47.474;9.416;2022-07-03T11:09:28;56509.97;;;-144.51;42.69
11268;BME280;49397;47.474;9.416;2022-07-03T11:12:12;56522.16;;;-144.51;42.22
11268;BME280;49397;47.474;9.416;2022-07-03T11:24:03;56487.63;;;-144.51;40.71
11268;BME280;49397;47.474;9.416;2022-07-03T11:27:26;56507.94;;;-144.51;40.79
11268;BME280;49397;47.474;9.416;2022-07-03T11:30:12;56453.09;;;-144.51;39.01
11268;BME280;49397;47.474;9.416;2022-07-03T11:32:56;56432.78;;;-144.51;39.00
11268;BME280;49397;47.474;9.416;2022-07-03T11:35:45;56440.91;;;-144.51;39.48
11268;BME280;49397;47.474;9.416;2022-07-03T11:38:33;56422.63;;;-144.51;38.00
11268;BME280;49397;47.474;9.416;2022-07-03T11:41:18;56381.97;;;-144.51;38.40
11268;BME280;49397;47.474;9.416;2022-07-03T11:44:04;56416.53;;;-144.51;37.77
11268;BME280;49397;47.474;9.416;2022-07-03T11:46:50;56375.88;;;-144.51;37.64
11268;BME280;49397;47.474;9.416;2022-07-03T11:49:34;56381.97;;;-144.51;37.57
11268;BME280;49397;47.474;9.416;2022-07-03T11:52:32;56363.69;;;-144.51;36.06
11268;BME280;49397;47.474;9.416;2022-07-03T11:55:16;56400.25;;;-144.51;36.01
11268;BME280;49397;47.474;9.416;2022-07-03T11:58:00;56404.31;;;-144.51;36.79
11268;BME280;49397;47.474;9.416;2022-07-03T12:00:45;56363.69;;;-144.51;36.57
11268;BME280;49397;47.474;9.416;2022-07-03T12:03:29;56359.63;;;-144.51;36.11
11268;BME280;49397;47.474;9.416;2022-07-03T12:06:13;56335.25;;;-144.51;37.37
11268;BME280;49397;47.474;9.416;2022-07-03T12:08:57;56282.44;;;-144.51;36.81
11268;BME280;49397;47.474;9.416;2022-07-03T12:11:41;56343.38;;;-144.51;36.99
11268;BME280;49397;47.474;9.416;2022-07-03T12:14:43;56375.88;;;-144.51;36.38
11268;BME280;49397;47.474;9.416;2022-07-03T12:17:28;56355.56;;;-144.51;35.89
11268;BME280;49397;47.474;9.416;2022-07-03T12:20:12;56331.19;;;-144.51;35.76
11268;BME280;49397;47.474;9.416;2022-07-03T12:22:56;56319.00;;;-144.51;36.02
11268;BME280;49397;47.474;9.416;2022-07-03T12:25:40;56319.00;;;-144.51;36.23
11268;BME280;49397;47.474;9.416;2022-07-03T12:28:27;56312.91;;;-144.51;33.32
11268;BME280;49397;47.474;9.416;2022-07-03T12:31:11;56302.75;;;-144.51;35.78
11268;BME280;49397;47.474;9.416;2022-07-03T12:33:59;56306.81;;;-144.51;35.55
11268;BME280;49397;47.474;9.416;2022-07-03T12:36:59;56270.25;;;-144.51;34.80
11268;BME280;49397;47.474;9.416;2022-07-03T12:39:47;56314.94;;;-144.51;33.27
11268;BME280;49397;47.474;9.416;2022-07-03T12:45:31;56274.31;;;-144.51;35.79
11268;BME280;49397;47.474;9.416;2022-07-03T12:48:15;56314.94;;;-144.51;34.39
11268;BME280;49397;47.474;9.416;2022-07-03T12:50:59;56314.94;;;-144.51;33.80
11268;BME280;49397;47.474;9.416;2022-07-03T12:53:54;56335.25;;;-144.51;33.94
11268;BME280;49397;47.474;9.416;2022-07-03T12:56:38;56288.53;;;-144.51;33.53
11268;BME280;49397;47.474;9.416;2022-07-03T12:59:27;56274.31;;;-144.51;33.55
11268;BME280;49397;47.474;9.416;2022-07-03T13:02:11;56278.38;;;-144.51;33.04
11268;BME280;49397;47.474;9.416;2022-07-03T13:05:00;56323.06;;;-144.51;33.61
11268;BME280;49397;47.474;9.416;2022-07-03T13:07:50;56308.84;;;-144.51;34.26
11268;BME280;49397;47.474;9.416;2022-07-03T13:10:34;56302.75;;;-144.51;34.61
11268;BME280;49397;47.474;9.416;2022-07-03T13:13:18;56290.56;;;-144.51;32.72
11268;BME280;49397;47.474;9.416;2022-07-03T13:16:22;56278.38;;;-144.51;33.28
11268;BME280;49397;47.474;9.416;2022-07-03T13:19:08;56323.06;;;-144.51;33.35
11268;BME280;49397;47.474;9.416;2022-07-03T13:21:54;56310.88;;;-144.51;33.01
11268;BME280;49397;47.474;9.416;2022-07-03T13:24:38;56290.56;;;-144.51;33.69
11268;BME280;49397;47.474;9.416;2022-07-03T13:27:22;56294.63;;;-144.51;32.38
11268;BME280;49397;47.474;9.416;2022-07-03T13:30:07;56310.88;;;-144.51;32.00
11268;BME280;49397;47.474;9.416;2022-07-03T13:32:51;56302.75;;;-144.51;32.98
11268;BME280;49397;47.474;9.416;2022-07-03T13:35:35;56331.19;;;-144.51;32.73
11268;BME280;49397;47.474;9.416;2022-07-03T13:38:19;56302.75;;;-144.51;34.40
11268;BME280;49397;47.474;9.416;2022-07-03T13:41:03;56339.31;;;-144.51;33.51
11268;BME280;49397;47.474;9.416;2022-07-03T13:43:47;56349.47;;;-144.51;33.30
11268;BME280;49397;47.474;9.416;2022-07-03T13:46:32;56312.91;;;-144.51;33.06
11268;BME280;49397;47.474;9.416;2022-07-03T13:49:16;56310.88;;;-144.51;33.74
11268;BME280;49397;47.474;9.416;2022-07-03T13:52:00;56304.78;;;-144.51;32.51
11268;BME280;49397;47.474;9.416;2022-07-03T13:54:44;56325.09;;;-144.51;33.40
11268;BME280;49397;47.474;9.416;2022-07-03T13:57:28;56379.94;;;-144.51;34.28
11268;BME280;49397;47.474;9.416;2022-07-03T14:00:12;56384.00;;;-144.51;33.13
11268;BME280;49397;47.474;9.416;2022-07-03T14:02:56;56379.94;;;-144.51;35.25
11268;BME280;49397;47.474;9.416;2022-07-03T14:05:40;56392.13;;;-144.51;35.34
11268;BME280;49397;47.474;9.416;2022-07-03T14:08:24;56451.06;;;-144.51;35.70
11268;BME280;49397;47.474;9.416;2022-07-03T14:11:08;56459.19;;;-144.51;34.82
11268;BME280;49397;47.474;9.416;2022-07-03T14:13:52;56453.09;;;-144.51;35.03
11268;BME280;49397;47.474;9.416;2022-07-03T14:16:36;56501.84;;;-144.51;35.75
11268;BME280;49397;47.474;9.416;2022-07-03T14:19:21;56473.41;;;-144.51;35.63
11268;BME280;49397;47.474;9.416;2022-07-03T14:22:05;56491.69;;;-144.51;36.93
11268;BME280;49397;47.474;9.416;2022-07-03T14:24:49;56485.59;;;-144.51;37.34
11268;BME280;49397;47.474;9.416;2022-07-03T14:27:33;56477.47;;;-144.51;36.09
11268;BME280;49397;47.474;9.416;2022-07-03T14:30:36;56477.47;;;-144.51;38.81
11268;BME280;49397;47.474;9.416;2022-07-03T14:33:39;56505.91;;;-144.51;36.63
11268;BME280;49397;47.474;9.416;2022-07-03T14:36:23;56542.47;;;-144.51;36.02
11268;BME280;49397;47.474;9.416;2022-07-03T14:39:08;56524.19;;;-144.51;37.22
11268;BME280;49397;47.474;9.416;2022-07-03T14:41:51;56514.03;;;-144.51;37.89
11268;BME280;49397;47.474;9.416;2022-07-03T14:44:35;56522.16;;;-144.51;38.73
11268;BME280;49397;47.474;9.416;2022-07-03T14:47:19;56518.09;;;-144.51;38.17
11268;BME280;49397;47.474;9.416;2022-07-03T14:50:05;56524.19;;;-144.51;37.91
11268;BME280;49397;47.474;9.416;2022-07-03T14:52:49;56514.03;;;-144.51;38.60
11268;BME280;49397;47.474;9.416;2022-07-03T14:55:36;56485.59;;;-144.51;37.05
11268;BME280;49397;47.474;9.416;2022-07-03T14:58:21;56471.38;;;-144.51;38.43
11268;BME280;49397;47.474;9.416;2022-07-03T15:01:09;56501.84;;;-144.51;37.24